createdAt,value
2023-05-14T00:01:55.639Z,100.00
2023-05-14T00:04:25.222Z,100.00
2023-05-14T00:06:53.228Z,100.00
2023-05-14T00:09:20.918Z,100.00
2023-05-14T00:11:49.010Z,100.00
2023-05-14T00:14:16.829Z,100.00
2023-05-14T00:16:44.547Z,100.00
2023-05-14T00:19:12.827Z,100.00
2023-05-14T00:21:42.011Z,100.00
2023-05-14T00:24:09.878Z,100.00
2023-05-14T00:26:38.096Z,100.00
2023-05-14T00:29:32.959Z,100.00
2023-05-14T00:32:00.742Z,100.00
2023-05-14T00:34:28.473Z,100.00
2023-05-14T00:36:57.628Z,100.00
2023-05-14T00:39:25.312Z,100.00
2023-05-14T00:41:53.453Z,100.00
2023-05-14T00:44:21.422Z,100.00
2023-05-14T00:46:49.588Z,100.00
2023-05-14T00:49:18.702Z,100.00
2023-05-14T00:51:47.672Z,100.00
2023-05-14T00:54:18.227Z,100.00
2023-05-14T00:57:00.805Z,100.00
2023-05-14T00:59:31.979Z,100.00
2023-05-14T01:02:00.154Z,100.00
2023-05-14T01:04:28.217Z,100.00
2023-05-14T01:07:06.223Z,100.00
2023-05-14T01:09:39.943Z,100.00
2023-05-14T01:12:15.285Z,100.00
2023-05-14T01:14:50.151Z,100.00
2023-05-14T01:17:20.028Z,100.00
2023-05-14T01:19:49.558Z,100.00
2023-05-14T01:22:19.039Z,100.00
2023-05-14T01:24:47.158Z,100.00
2023-05-14T01:27:23.302Z,100.00
2023-05-14T01:29:57.801Z,100.00
2023-05-14T01:32:27.741Z,100.00
2023-05-14T01:34:59.431Z,100.00
2023-05-14T01:37:31.142Z,100.00
2023-05-14T01:40:00.512Z,100.00
2023-05-14T01:42:29.709Z,100.00
2023-05-14T01:44:57.927Z,100.00
2023-05-14T01:47:25.685Z,100.00
2023-05-14T01:49:53.650Z,100.00
2023-05-14T01:52:21.612Z,100.00
2023-05-14T01:54:51.054Z,100.00
2023-05-14T01:57:19.152Z,100.00
2023-05-14T01:59:47.376Z,100.00
2023-05-14T02:02:15.088Z,100.00
2023-05-14T02:04:43.293Z,100.00
2023-05-14T02:07:12.090Z,100.00
2023-05-14T02:09:40.288Z,100.00
2023-05-14T02:12:11.073Z,100.00
2023-05-14T02:14:39.365Z,100.00
2023-05-14T02:17:07.108Z,100.00
2023-05-14T02:19:34.902Z,100.00
2023-05-14T02:22:03.120Z,100.00
2023-05-14T02:24:30.842Z,100.00
2023-05-14T02:27:01.052Z,100.00
2023-05-14T02:29:30.172Z,100.00
2023-05-14T02:31:58.450Z,100.00
2023-05-14T02:34:26.959Z,100.00
2023-05-14T02:36:54.661Z,100.00
2023-05-14T02:39:22.364Z,100.00
2023-05-14T02:41:50.682Z,100.00
2023-05-14T02:44:18.945Z,100.00
2023-05-14T02:46:48.828Z,100.00
2023-05-14T02:49:16.656Z,100.00
2023-05-14T02:51:44.462Z,100.00
2023-05-14T02:54:12.248Z,100.00
2023-05-14T02:56:40.005Z,100.00
2023-05-14T02:59:07.744Z,100.00
2023-05-14T03:01:36.482Z,100.00
2023-05-14T03:04:06.287Z,100.00
2023-05-14T03:06:34.114Z,100.00
2023-05-14T03:09:01.867Z,100.00
2023-05-14T03:11:29.652Z,100.00
2023-05-14T03:13:57.509Z,100.00
2023-05-14T03:16:26.183Z,100.00
2023-05-14T03:18:54.545Z,100.00
2023-05-14T03:21:23.912Z,100.00
2023-05-14T03:23:52.189Z,100.00
2023-05-14T03:26:19.984Z,100.00
2023-05-14T03:28:47.773Z,100.00
2023-05-14T03:31:15.785Z,100.00
2023-05-14T03:33:43.637Z,100.00
2023-05-14T03:36:11.383Z,100.00
2023-05-14T03:38:40.451Z,100.00
2023-05-14T03:41:08.117Z,100.00
2023-05-14T03:43:36.148Z,100.00
2023-05-14T03:46:03.999Z,100.00
2023-05-14T03:48:31.798Z,100.00
2023-05-14T03:50:59.483Z,100.00
2023-05-14T03:53:27.569Z,100.00
2023-05-14T03:55:56.704Z,100.00
2023-05-14T03:58:24.405Z,100.00
2023-05-14T04:00:52.422Z,100.00
2023-05-14T04:03:20.184Z,100.00
2023-05-14T04:05:48.064Z,100.00
2023-05-14T04:08:16.319Z,100.00
2023-05-14T04:10:44.456Z,100.00
2023-05-14T04:13:13.554Z,100.00
2023-05-14T04:15:41.404Z,100.00
2023-05-14T04:18:09.248Z,100.00
2023-05-14T04:20:37.143Z,100.00
2023-05-14T04:23:05.238Z,100.00
2023-05-14T04:25:32.983Z,100.00
2023-05-14T04:28:00.867Z,100.00
2023-05-14T04:30:29.954Z,100.00
2023-05-14T04:32:58.211Z,100.00
2023-05-14T04:35:25.943Z,100.00
2023-05-14T04:37:53.770Z,100.00
2023-05-14T04:40:22.784Z,100.00
2023-05-14T04:42:51.194Z,100.00
2023-05-14T04:45:19.180Z,100.00
2023-05-14T04:47:51.311Z,100.00
2023-05-14T04:50:19.168Z,100.00
2023-05-14T04:52:47.702Z,100.00
2023-05-14T04:55:15.370Z,100.00
2023-05-14T04:57:43.294Z,100.00
2023-05-14T05:00:12.291Z,100.00
2023-05-14T05:02:40.052Z,100.00
2023-05-14T05:05:10.148Z,100.00
2023-05-14T05:07:37.825Z,100.00
2023-05-14T05:10:06.290Z,100.00
2023-05-14T05:12:35.330Z,100.00
2023-05-14T05:15:04.028Z,100.00
2023-05-14T05:17:31.984Z,100.00
2023-05-14T05:19:59.733Z,100.00
2023-05-14T05:22:28.959Z,100.00
2023-05-14T05:24:56.765Z,100.00
2023-05-14T05:27:24.461Z,100.00
2023-05-14T05:29:52.446Z,100.00
2023-05-14T05:32:20.695Z,100.00
2023-05-14T05:34:48.521Z,100.00
2023-05-14T05:37:16.439Z,100.00
2023-05-14T05:39:45.771Z,100.00
2023-05-14T05:42:13.509Z,100.00
2023-05-14T05:44:41.289Z,100.00
2023-05-14T05:47:09.055Z,100.00
2023-05-14T05:49:39.660Z,100.00
2023-05-14T05:52:08.298Z,100.00
2023-05-14T05:54:36.165Z,100.00
2023-05-14T05:57:05.848Z,100.00
2023-05-14T05:59:33.719Z,100.00
2023-05-14T06:02:01.531Z,100.00
2023-05-14T06:04:29.498Z,100.00
2023-05-14T06:06:57.124Z,100.00
2023-05-14T06:09:24.880Z,100.00
2023-05-14T06:11:52.687Z,100.00
2023-05-14T06:14:21.860Z,100.00
2023-05-14T06:16:49.798Z,100.00
2023-05-14T06:19:18.473Z,100.00
2023-05-14T06:21:46.552Z,100.00
2023-05-14T06:24:14.462Z,100.00
2023-05-14T06:26:42.652Z,100.00
2023-05-14T06:29:10.737Z,100.00
2023-05-14T06:31:40.043Z,100.00
2023-05-14T06:34:08.085Z,100.00
2023-05-14T06:36:35.814Z,100.00
2023-05-14T06:39:04.223Z,100.00
2023-05-14T06:41:32.004Z,100.00
2023-05-14T06:43:59.850Z,100.00
2023-05-14T06:46:27.650Z,100.00
2023-05-14T06:48:59.179Z,100.00
2023-05-14T06:51:27.741Z,100.00
2023-05-14T06:53:55.947Z,100.00
2023-05-14T06:56:24.003Z,100.00
2023-05-14T06:58:51.789Z,100.00
2023-05-14T07:01:19.551Z,100.00
2023-05-14T07:03:47.577Z,100.00
2023-05-14T07:06:17.675Z,100.00
2023-05-14T07:08:46.773Z,100.00
2023-05-14T07:11:16.860Z,100.00
2023-05-14T07:13:44.624Z,100.00
2023-05-14T07:16:12.426Z,100.00
2023-05-14T07:18:40.304Z,100.00
2023-05-14T07:21:07.998Z,100.00
2023-05-14T07:23:38.325Z,100.00
2023-05-14T07:26:06.753Z,100.00
2023-05-14T07:28:35.417Z,100.00
2023-05-14T07:31:10.945Z,100.00
2023-05-14T07:33:40.536Z,100.00
2023-05-14T07:36:09.352Z,100.00
2023-05-14T07:38:39.883Z,100.00
2023-05-14T07:41:07.848Z,100.00
2023-05-14T07:43:35.707Z,100.00
2023-05-14T07:46:03.375Z,100.00
2023-05-14T07:48:31.212Z,100.00
2023-05-14T07:50:58.992Z,100.00
2023-05-14T07:53:26.788Z,100.00
2023-05-14T07:55:56.111Z,100.00
2023-05-14T07:58:24.966Z,100.00
2023-05-14T08:00:53.028Z,100.00
2023-05-14T08:03:22.304Z,100.00
2023-05-14T08:05:50.329Z,100.00
2023-05-14T08:08:18.025Z,100.00
2023-05-14T08:10:46.346Z,100.00
2023-05-14T08:13:15.555Z,100.00
2023-05-14T08:15:43.539Z,97.97
2023-05-14T08:18:11.259Z,97.99
2023-05-14T08:20:38.992Z,99.73
2023-05-14T08:23:07.306Z,94.49
2023-05-14T08:25:35.156Z,95.41
2023-05-14T08:28:03.194Z,90.34
2023-05-14T08:30:32.315Z,92.96
2023-05-14T08:33:00.459Z,93.65
2023-05-14T08:35:28.295Z,93.84
2023-05-14T08:37:56.916Z,93.62
2023-05-14T08:40:26.327Z,94.22
2023-05-14T08:42:55.186Z,91.10
2023-05-14T08:45:28.499Z,90.58
2023-05-14T08:48:00.281Z,90.89
2023-05-14T08:50:30.252Z,88.60
2023-05-14T08:52:58.441Z,89.78
2023-05-14T08:55:29.193Z,90.31
2023-05-14T08:57:57.123Z,90.93
2023-05-14T09:00:26.962Z,88.19
2023-05-14T09:03:00.783Z,86.93
2023-05-14T09:05:29.492Z,87.20
2023-05-14T09:07:57.312Z,85.19
2023-05-14T09:10:25.342Z,85.61
2023-05-14T09:12:53.377Z,85.34
2023-05-14T09:15:21.405Z,84.57
2023-05-14T09:17:49.465Z,82.10
2023-05-14T09:20:19.069Z,82.25
2023-05-14T09:22:46.965Z,82.23
2023-05-14T09:25:15.047Z,82.12
2023-05-14T09:27:43.411Z,78.85
2023-05-14T09:30:12.981Z,81.52
2023-05-14T09:32:43.809Z,81.75
2023-05-14T09:35:17.822Z,83.17
2023-05-14T09:37:48.529Z,78.80
2023-05-14T09:40:17.924Z,77.69
2023-05-14T09:42:46.072Z,76.26
2023-05-14T09:45:14.502Z,74.52
2023-05-14T09:47:42.823Z,76.40
2023-05-14T09:50:10.944Z,74.87
2023-05-14T09:52:39.759Z,73.31
2023-05-14T09:55:10.949Z,73.88
2023-05-14T09:57:38.773Z,68.55
2023-05-14T10:00:08.993Z,66.85
2023-05-14T10:02:38.874Z,64.44
2023-05-14T10:05:09.613Z,67.11
2023-05-14T10:07:42.036Z,69.12
2023-05-14T10:10:16.393Z,72.16
2023-05-14T10:12:47.514Z,73.03
2023-05-14T10:15:20.636Z,74.30
2023-05-14T10:17:54.070Z,73.22
2023-05-14T10:20:24.173Z,75.12
2023-05-14T10:22:52.670Z,76.53
2023-05-14T10:25:23.017Z,75.87
2023-05-14T10:27:50.902Z,77.11
2023-05-14T10:30:23.116Z,77.05
2023-05-14T10:33:06.595Z,76.79
2023-05-14T10:35:52.491Z,78.28
2023-05-14T10:38:24.137Z,75.83
2023-05-14T10:40:59.313Z,77.84
2023-05-14T10:43:29.586Z,75.14
2023-05-14T10:45:58.628Z,77.51
2023-05-14T10:48:26.964Z,77.14
2023-05-14T10:50:56.226Z,76.65
2023-05-14T10:53:33.201Z,75.01
2023-05-14T10:56:06.913Z,76.03
2023-05-14T10:58:38.064Z,77.89
2023-05-14T11:01:07.566Z,78.44
2023-05-14T11:03:42.113Z,78.41
2023-05-14T11:06:11.149Z,78.72
2023-05-14T11:08:39.968Z,78.56
2023-05-14T11:11:10.848Z,75.25
2023-05-14T11:13:39.508Z,75.03
2023-05-14T11:18:42.301Z,77.97
2023-05-14T11:21:10.144Z,77.73
2023-05-14T11:23:38.868Z,77.41
2023-05-14T11:26:06.973Z,76.27
2023-05-14T11:28:36.513Z,77.94
2023-05-14T11:31:05.557Z,77.24
2023-05-14T11:33:33.335Z,77.51
2023-05-14T11:36:01.085Z,79.62
2023-05-14T11:38:28.963Z,74.68
2023-05-14T11:40:58.086Z,73.81
2023-05-14T11:43:29.017Z,74.43
2023-05-14T11:45:58.112Z,73.55
2023-05-14T11:48:25.967Z,70.75
2023-05-14T11:50:53.970Z,71.97
2023-05-14T11:53:26.417Z,71.71
2023-05-14T11:55:55.263Z,73.00
2023-05-14T11:58:23.263Z,71.53
2023-05-14T12:00:51.728Z,69.22
2023-05-14T12:03:25.330Z,73.01
2023-05-14T12:05:57.238Z,68.21
2023-05-14T12:08:27.823Z,70.58
2023-05-14T12:10:55.838Z,68.00
2023-05-14T12:13:26.378Z,67.43
2023-05-14T12:15:56.095Z,63.40
2023-05-14T12:18:26.560Z,63.78
2023-05-14T12:20:54.381Z,65.88
2023-05-14T12:23:26.840Z,66.67
2023-05-14T12:25:54.688Z,67.25
2023-05-14T12:28:24.456Z,65.73
2023-05-14T12:30:57.074Z,66.43
2023-05-14T12:33:28.527Z,66.32
2023-05-14T12:35:58.931Z,66.22
2023-05-14T12:38:28.422Z,66.40
2023-05-14T12:40:56.073Z,66.13
2023-05-14T12:43:24.921Z,65.08
2023-05-14T12:45:52.609Z,64.77
2023-05-14T12:48:20.303Z,65.26
2023-05-14T12:50:49.351Z,68.32
2023-05-14T12:53:17.112Z,64.41
2023-05-14T12:55:45.284Z,62.67
2023-05-14T12:58:13.063Z,66.22
2023-05-14T13:00:40.923Z,65.79
2023-05-14T13:03:08.777Z,64.26
2023-05-14T13:05:36.810Z,61.17
2023-05-14T13:08:06.117Z,61.90
2023-05-14T13:10:34.146Z,60.72
2023-05-14T13:13:02.436Z,61.37
2023-05-14T13:17:59.279Z,60.43
2023-05-14T13:20:27.453Z,60.82
2023-05-14T13:22:55.308Z,59.88
2023-05-14T13:25:24.966Z,58.49
2023-05-14T13:27:53.317Z,60.31
2023-05-14T13:30:21.305Z,58.55
2023-05-14T13:32:49.371Z,60.48
2023-05-14T13:35:17.334Z,55.94
2023-05-14T13:37:45.409Z,58.78
2023-05-14T13:40:14.192Z,59.32
2023-05-14T13:42:43.597Z,57.02
2023-05-14T13:45:12.899Z,56.13
2023-05-14T13:47:40.987Z,55.09
2023-05-14T13:50:09.448Z,57.18
2023-05-14T13:52:39.034Z,57.27
2023-05-14T13:55:08.185Z,56.35
2023-05-14T13:57:36.506Z,57.80
2023-05-14T14:00:07.143Z,57.21
2023-05-14T14:02:34.918Z,57.13
2023-05-14T14:05:02.766Z,55.89
2023-05-14T14:07:30.538Z,55.19
2023-05-14T14:09:58.527Z,56.28
2023-05-14T14:12:26.665Z,55.82
2023-05-14T14:14:54.804Z,56.52
2023-05-14T14:17:23.985Z,57.58
2023-05-14T14:19:52.126Z,57.27
2023-05-14T14:22:19.952Z,59.54
2023-05-14T14:24:47.848Z,58.23
2023-05-14T14:27:15.649Z,57.05
2023-05-14T14:29:47.204Z,56.07
2023-05-14T14:32:14.931Z,57.01
2023-05-14T14:34:44.041Z,56.10
2023-05-14T14:37:11.903Z,57.94
2023-05-14T14:39:39.633Z,59.48
2023-05-14T14:42:08.037Z,58.22
2023-05-14T14:44:35.710Z,57.53
2023-05-14T14:47:03.481Z,58.76
2023-05-14T14:49:32.077Z,56.25
2023-05-14T14:52:01.960Z,59.65
2023-05-14T14:54:30.632Z,60.22
2023-05-14T14:56:58.532Z,58.36
2023-05-14T14:59:26.309Z,58.20
2023-05-14T15:01:55.146Z,58.80
2023-05-14T15:04:22.954Z,59.21
2023-05-14T15:06:50.728Z,58.61
2023-05-14T15:09:19.746Z,60.76
2023-05-14T15:11:48.251Z,59.85
2023-05-14T15:14:16.170Z,58.33
2023-05-14T15:16:43.949Z,59.80
2023-05-14T15:19:11.990Z,61.37
2023-05-14T15:21:39.778Z,62.12
2023-05-14T15:24:08.899Z,61.99
2023-05-14T15:26:37.912Z,62.04
2023-05-14T15:29:05.938Z,62.93
2023-05-14T15:31:33.834Z,60.91
2023-05-14T15:34:01.657Z,62.35
2023-05-14T15:36:29.438Z,63.57
2023-05-14T15:38:57.636Z,64.54
2023-05-14T15:41:28.609Z,64.10
2023-05-14T15:43:58.636Z,64.08
2023-05-14T15:46:26.890Z,62.77
2023-05-14T15:48:54.775Z,62.81
2023-05-14T15:51:22.525Z,63.60
2023-05-14T15:53:50.568Z,61.16
2023-05-14T15:56:18.978Z,62.03
2023-05-14T15:58:46.712Z,62.54
2023-05-14T16:01:16.940Z,61.81
2023-05-14T16:03:44.840Z,63.25
2023-05-14T16:06:12.816Z,62.29
2023-05-14T16:08:40.736Z,61.55
2023-05-14T16:11:08.505Z,61.80
2023-05-14T16:13:39.081Z,62.13
2023-05-14T16:16:06.986Z,62.50
2023-05-14T16:18:36.149Z,61.58
2023-05-14T16:21:04.515Z,62.65
2023-05-14T16:23:32.342Z,64.46
2023-05-14T16:26:00.643Z,63.42
2023-05-14T16:28:28.698Z,64.54
2023-05-14T16:30:56.344Z,62.23
2023-05-14T16:33:24.005Z,64.53
2023-05-14T16:35:53.112Z,63.84
2023-05-14T16:38:20.964Z,65.63
2023-05-14T16:40:48.672Z,63.71
2023-05-14T16:43:17.229Z,63.43
2023-05-14T16:45:45.030Z,64.16
2023-05-14T16:48:12.952Z,63.11
2023-05-14T16:50:40.774Z,63.55
2023-05-14T16:53:09.966Z,63.46
2023-05-14T16:55:37.719Z,63.15
2023-05-14T16:58:05.696Z,64.77
2023-05-14T17:00:33.356Z,66.41
2023-05-14T17:03:02.332Z,66.48
2023-05-14T17:05:30.460Z,66.52
2023-05-14T17:07:58.113Z,66.14
2023-05-14T17:10:28.007Z,67.28
2023-05-14T17:12:55.841Z,66.92
2023-05-14T17:15:23.840Z,67.72
2023-05-14T17:17:52.778Z,66.11
2023-05-14T17:20:20.643Z,65.55
2023-05-14T17:22:48.862Z,66.96
2023-05-14T17:25:16.778Z,67.05
2023-05-14T17:27:45.901Z,66.61
2023-05-14T17:30:14.056Z,67.69
2023-05-14T17:32:41.990Z,67.89
2023-05-14T17:35:11.520Z,67.23
2023-05-14T17:37:39.286Z,67.59
2023-05-14T17:40:08.108Z,67.00
2023-05-14T17:42:36.180Z,67.75
2023-05-14T17:45:07.646Z,70.07
2023-05-14T17:47:35.377Z,70.07
2023-05-14T17:50:03.478Z,68.48
2023-05-14T17:52:31.420Z,69.90
2023-05-14T17:54:59.195Z,69.34
2023-05-14T17:57:30.033Z,68.55
2023-05-14T17:59:58.456Z,67.74
2023-05-14T18:02:28.155Z,69.32
2023-05-14T18:04:55.929Z,69.91
2023-05-14T18:07:23.982Z,70.00
2023-05-14T18:09:51.725Z,69.66
2023-05-14T18:12:19.576Z,70.19
2023-05-14T18:14:47.422Z,71.74
2023-05-14T18:17:15.590Z,72.18
2023-05-14T18:19:50.091Z,71.84
2023-05-14T18:22:17.757Z,72.91
2023-05-14T18:24:46.303Z,71.92
2023-05-14T18:27:19.046Z,71.96
2023-05-14T18:29:47.754Z,71.37
2023-05-14T18:32:22.100Z,71.98
2023-05-14T18:34:54.344Z,72.28
2023-05-14T18:37:22.496Z,71.36
2023-05-14T18:39:50.960Z,72.41
2023-05-14T18:42:18.711Z,71.88
2023-05-14T18:44:47.741Z,73.15
2023-05-14T18:47:15.582Z,72.20
2023-05-14T18:49:43.506Z,72.78
2023-05-14T18:52:13.114Z,72.64
2023-05-14T18:54:40.819Z,72.32
2023-05-14T18:57:09.131Z,73.21
2023-05-14T18:59:36.940Z,73.26
2023-05-14T19:02:05.471Z,73.48
2023-05-14T19:04:44.316Z,73.01
2023-05-14T19:07:20.535Z,72.09
2023-05-14T19:09:48.289Z,71.66
2023-05-14T19:12:16.444Z,73.13
2023-05-14T19:14:47.272Z,73.98
2023-05-14T19:17:15.844Z,72.68
2023-05-14T19:19:45.829Z,72.13
2023-05-14T19:22:14.109Z,73.10
2023-05-14T19:24:43.209Z,73.50
2023-05-14T19:27:12.822Z,73.36
2023-05-14T19:29:40.707Z,73.55
2023-05-14T19:32:09.323Z,73.49
2023-05-14T19:34:37.351Z,74.46
2023-05-14T19:37:06.099Z,75.50
2023-05-14T19:39:34.289Z,75.61
2023-05-14T19:42:03.515Z,76.70
2023-05-14T19:44:31.911Z,75.90
2023-05-14T19:46:59.799Z,75.84
2023-05-14T19:49:27.844Z,75.96
2023-05-14T19:51:55.867Z,76.92
2023-05-14T19:54:23.907Z,77.38
2023-05-14T19:56:51.734Z,78.80
2023-05-14T19:59:20.879Z,78.88
2023-05-14T20:01:48.521Z,79.46
2023-05-14T20:04:16.575Z,79.38
2023-05-14T20:06:45.413Z,78.61
2023-05-14T20:09:13.718Z,79.08
2023-05-14T20:11:41.676Z,79.45
2023-05-14T20:14:09.377Z,79.97
2023-05-14T20:16:38.643Z,81.39
2023-05-14T20:19:06.452Z,81.06
2023-05-14T20:21:34.259Z,80.69
2023-05-14T20:24:02.743Z,80.40
2023-05-14T20:26:30.453Z,80.47
2023-05-14T20:28:58.344Z,81.05
2023-05-14T20:31:26.159Z,81.63
2023-05-14T20:33:55.399Z,81.06
2023-05-14T20:36:24.336Z,81.50
2023-05-14T20:38:52.701Z,81.30
2023-05-14T20:41:20.941Z,81.92
2023-05-14T20:43:48.679Z,82.75
2023-05-14T20:46:17.100Z,83.54
2023-05-14T20:48:45.474Z,84.09
2023-05-14T20:51:14.575Z,84.17
2023-05-14T20:53:42.688Z,84.03
2023-05-14T20:56:10.712Z,84.09
2023-05-14T20:58:38.386Z,84.42
2023-05-14T21:01:07.954Z,83.94
2023-05-14T21:03:35.764Z,84.27
2023-05-14T21:06:03.805Z,84.49
2023-05-14T21:08:34.916Z,84.62
2023-05-14T21:11:02.969Z,84.67
2023-05-14T21:13:31.176Z,84.43
2023-05-14T21:16:00.190Z,84.49
2023-05-14T21:18:30.711Z,85.30
2023-05-14T21:20:58.504Z,84.74
2023-05-14T21:23:26.202Z,85.11
2023-05-14T21:25:55.362Z,85.06
2023-05-14T21:28:23.821Z,85.61
2023-05-14T21:30:52.871Z,86.11
2023-05-14T21:33:24.395Z,87.18
2023-05-14T21:35:52.592Z,86.89
2023-05-14T21:38:20.471Z,87.09
2023-05-14T21:40:48.160Z,86.60
2023-05-14T21:43:17.268Z,87.00
2023-05-14T21:45:48.020Z,88.28
2023-05-14T21:48:15.797Z,88.73
2023-05-14T21:50:43.513Z,90.09
2023-05-14T21:53:11.165Z,90.45
2023-05-14T21:55:39.366Z,90.22
2023-05-14T21:58:07.431Z,89.57
2023-05-14T22:00:36.766Z,90.46
2023-05-14T22:03:04.787Z,90.27
2023-05-14T22:05:33.130Z,89.88
2023-05-14T22:08:00.847Z,91.09
2023-05-14T22:10:28.857Z,90.68
2023-05-14T22:12:56.557Z,90.74
2023-05-14T22:15:24.446Z,91.94
2023-05-14T22:17:54.006Z,91.73
2023-05-14T22:20:21.909Z,91.85
2023-05-14T22:22:50.759Z,91.76
2023-05-14T22:25:18.633Z,91.37
2023-05-14T22:27:46.336Z,91.77
2023-05-14T22:30:14.215Z,91.80
2023-05-14T22:32:41.930Z,92.27
2023-05-14T22:35:11.632Z,93.41
2023-05-14T22:37:39.586Z,93.03
2023-05-14T22:40:08.748Z,93.39
2023-05-14T22:42:39.157Z,93.23
2023-05-14T22:45:08.136Z,93.53
2023-05-14T22:47:35.847Z,93.27
2023-05-14T22:50:03.752Z,93.94
2023-05-14T22:52:32.828Z,93.51
2023-05-14T22:55:00.725Z,93.56
2023-05-14T22:57:29.440Z,94.01
2023-05-14T22:59:57.157Z,94.67
2023-05-14T23:02:24.839Z,94.34
2023-05-14T23:04:52.610Z,94.33
2023-05-14T23:07:20.601Z,95.04
2023-05-14T23:09:50.358Z,95.55
2023-05-14T23:12:18.538Z,96.15
2023-05-14T23:14:46.301Z,95.78
2023-05-14T23:17:15.523Z,95.58
2023-05-14T23:19:43.288Z,95.88
2023-05-14T23:22:11.183Z,95.74
2023-05-14T23:24:39.214Z,96.32
2023-05-14T23:27:08.525Z,96.65
2023-05-14T23:29:36.680Z,96.74
2023-05-14T23:32:04.886Z,97.82
2023-05-14T23:34:34.658Z,97.84
2023-05-14T23:37:03.693Z,98.05
2023-05-14T23:39:32.536Z,97.47
2023-05-14T23:42:01.039Z,98.13
2023-05-14T23:44:30.221Z,98.50
2023-05-14T23:46:58.463Z,98.36
2023-05-14T23:49:26.451Z,98.75
2023-05-14T23:51:54.753Z,99.59
2023-05-14T23:54:22.578Z,99.53
2023-05-14T23:56:50.623Z,99.66
2023-05-14T23:59:19.322Z,99.54
